Zapata, TX

2:33 PM CDT on October 31, 2014 (GMT -0500)
Zapata | Change Station
CLOSE
Current Station
Airport
Location: Zapata,
Elevation: 423 ft
Nearby Weather Stations

Elev 423 ft 26.97 °N, 99.25 °W | Updated 5 hours ago

Overcast
Overcast
68 °F
Feels Like 68 °F
N
14
Wind Variable Wind from NE
Gusts 29 mph

Today
High -- | Low -- °F
--% Chance of Precip.
Yesterday
High -- | Low -- °F
Precip. -- in
7:46 AM 6:54 PM
First Quarter, 58% visible
Pressure 30.22 in
Visibility 10.0 miles
Clouds Scattered Clouds 1100 ft
Mostly Cloudy 3800 ft
Overcast 6500 ft
Dew Point 62 °F
Humidity 81%
Rainfall 0.00 in
Snow Depth Not available.
UV 0 out of 12
Pollen 4.40 out of 12
Air Quality Not available.
Flu Activity Not available.
METAR KAPY 311410Z AUTO 05012G25KT 10SM RA SCT011 BKN038 OVC065 20/16 A3022 RMK AO2 LTG DSNT NE T01990165

More Conditions Fewer Conditions

Pressure 30.22 in
Visibility 10.0 miles
Clouds Scattered Clouds 1100 ft
Mostly Cloudy 3800 ft
Overcast 6500 ft
Dew Point 62 °F
Humidity 81%
Rainfall 0.00 in
Snow Depth Not available.
UV 0 out of 12
Pollen 4.40 out of 12
Air Quality Not available.
Flu Activity Not available.
METAR KAPY 311410Z AUTO 05012G25KT 10SM RA SCT011 BKN038 OVC065 20/16 A3022 RMK AO2 LTG DSNT NE T01990165

More Conditions Fewer Conditions

10-Day Weather Forecast

Almanac

Astronomy

Oct. 31, 2014 Rise Set
Actual Time
Civil Twilight
Nautical Twilight
Astronomical Twilight
Moon
Length of Visible Light
Length of Day
Tomorrow will be .
, % of the Moon is Illuminated

Today's Extremes

State Highs State Lows

Community

WunderPhotos

Upload Photos

1,766,699 photos uploaded!

WunderBlogs® & News

Nearby

Air Quality

  Air Quality AQ Index Pollutant
Not available.

Snow Depth

Station Depth Elevation

Earthquake Activity

City Distance Mag. Time & Date
Minimum magnitude displayed is 2.5.

Coastal Water Temperatures

Place Temperature

Nearby Weather Stations